CYTZ/YTZ METAR and TAF weather

Enter ICAO airport designator
Station Type Date Time Source
CYTZ METAR 2021/09/16 11:00 UTC NOAA

CYTZ 161100Z AUTO 07007KT 9SM BKN028 17/12 A3019 RMK SLP224


Station Type Date Time Source
CYTZ Decoded METAR 2021/09/16 11:00 UTC NOAA

Toronto Island Airport Automated Reporting Station, Canada (CYTZ) 43-38N 079-24W
Sep 16, 2021 - 07:00 AM EDT / 2021.09.16 1100 UTC
Wind: from the ENE (070 degrees) at 8 MPH (7 KT):0
Visibility: 9 mile(s):0
Sky conditions: mostly cloudy
Temperature: 62 F (17 C)
Dew Point: 53 F (12 C)
Relative Humidity: 72%
Pressure (altimeter): 30.19 in. Hg (1022 hPa)
ob: CYTZ 161100Z AUTO 07007KT 9SM BKN028 17/12 A3019 RMK SLP224
cycle: 11

Station Type Date Time Source
CYTZ TAF 2021/09/16 08:50 UTC NOAA

TAF CYTZ 160738Z 1608/1708 VRB03KT P6SM FEW015 PROB40 1608/1613 1/2SM FG VV002
FM161300 10010KT P6SM BKN030
FM161700 09010KT P6SM FEW040
RMK FCST BASED ON AUTO OBS. NXT FCST BY 161400Z

Example: see airport list